createdAt,value
2023-05-10T00:00:58.391Z,63.91
2023-05-10T00:01:58.436Z,63.91
2023-05-10T00:02:58.399Z,64.19
2023-05-10T00:03:58.432Z,64.17
2023-05-10T00:04:58.353Z,63.97
2023-05-10T00:05:58.352Z,64.63
2023-05-10T00:06:58.350Z,64.40
2023-05-10T00:07:58.383Z,65.13
2023-05-10T00:08:58.449Z,64.68
2023-05-10T00:09:58.494Z,64.60
2023-05-10T00:10:58.553Z,64.14
2023-05-10T00:11:58.607Z,64.11
2023-05-10T00:12:58.689Z,64.30
2023-05-10T00:13:58.690Z,65.91
2023-05-10T00:14:58.721Z,64.65
2023-05-10T00:15:58.757Z,64.63
2023-05-10T00:16:58.854Z,64.35
2023-05-10T00:17:58.895Z,64.61
2023-05-10T00:18:58.875Z,64.00
2023-05-10T00:19:58.912Z,65.39
2023-05-10T00:20:58.957Z,66.61
2023-05-10T00:21:58.965Z,67.23
2023-05-10T00:22:58.983Z,67.24
2023-05-10T00:23:59.042Z,66.34
2023-05-10T00:24:59.075Z,67.34
2023-05-10T00:25:59.123Z,65.94
2023-05-10T00:26:59.161Z,65.82
2023-05-10T00:27:59.186Z,64.75
2023-05-10T00:28:59.204Z,65.41
2023-05-10T00:29:59.228Z,65.93
2023-05-10T00:30:59.298Z,65.29
2023-05-10T00:31:59.351Z,65.60
2023-05-10T00:32:59.390Z,66.91
2023-05-10T00:33:59.424Z,67.59
2023-05-10T00:34:59.438Z,68.63
2023-05-10T00:35:59.475Z,68.52
2023-05-10T00:36:59.544Z,68.07
2023-05-10T00:37:59.576Z,66.93
2023-05-10T00:38:59.658Z,66.65
2023-05-10T00:39:59.696Z,66.47
2023-05-10T00:40:59.676Z,66.77
2023-05-10T00:41:59.674Z,67.34
2023-05-10T00:42:59.692Z,68.21
2023-05-10T00:43:59.698Z,67.29
2023-05-10T00:44:59.751Z,68.22
2023-05-10T00:45:59.770Z,67.84
2023-05-10T00:46:59.807Z,67.69
2023-05-10T00:48:00.308Z,68.14
2023-05-10T00:48:59.851Z,67.81
2023-05-10T00:49:59.865Z,67.87
2023-05-10T00:50:59.887Z,67.92
2023-05-10T00:51:59.934Z,68.12
2023-05-10T00:53:00.017Z,68.86
2023-05-10T00:54:00.019Z,70.98
2023-05-10T00:55:00.050Z,70.67
2023-05-10T00:56:00.078Z,70.10
2023-05-10T00:57:00.082Z,70.22
2023-05-10T00:58:00.163Z,69.23
2023-05-10T00:59:00.194Z,69.57
2023-05-10T01:00:00.254Z,68.58
2023-05-10T01:01:00.291Z,67.59
2023-05-10T01:02:00.288Z,67.62
2023-05-10T01:03:00.425Z,67.67
2023-05-10T01:04:00.368Z,67.57
2023-05-10T01:05:00.431Z,69.06
2023-05-10T01:06:00.436Z,70.11
2023-05-10T01:07:00.473Z,70.56
2023-05-10T01:08:00.526Z,69.75
2023-05-10T01:09:00.563Z,70.06
2023-05-10T01:10:00.585Z,69.80
2023-05-10T01:11:00.620Z,69.49
2023-05-10T01:12:00.681Z,69.28
2023-05-10T01:13:00.698Z,68.28
2023-05-10T01:14:00.696Z,69.04
2023-05-10T01:15:00.742Z,68.98
2023-05-10T01:16:00.840Z,68.32
2023-05-10T01:17:00.845Z,67.84
2023-05-10T01:18:00.874Z,67.49
2023-05-10T01:19:00.916Z,67.03
2023-05-10T01:20:00.916Z,66.68
2023-05-10T01:21:00.909Z,66.51
2023-05-10T01:22:00.911Z,66.32
2023-05-10T01:23:00.910Z,66.52
2023-05-10T01:24:00.916Z,66.65
2023-05-10T01:25:00.909Z,66.66
2023-05-10T01:26:00.916Z,67.99
2023-05-10T01:27:00.898Z,66.93
2023-05-10T01:28:00.887Z,68.20
2023-05-10T01:29:00.886Z,66.97
2023-05-10T01:30:21.776Z,67.59
2023-05-10T01:31:00.884Z,66.93
2023-05-10T01:32:00.815Z,66.91
2023-05-10T01:33:00.810Z,67.39
2023-05-10T01:34:00.754Z,66.93
2023-05-10T01:35:00.735Z,67.05
2023-05-10T01:36:00.687Z,67.16
2023-05-10T01:37:00.659Z,67.02
2023-05-10T01:38:00.629Z,66.97
2023-05-10T01:39:00.616Z,66.67
2023-05-10T01:40:00.630Z,67.79
2023-05-10T01:41:00.608Z,68.06
2023-05-10T01:42:00.611Z,68.25
2023-05-10T01:43:00.616Z,68.33
2023-05-10T01:44:00.629Z,68.57
2023-05-10T01:45:00.648Z,70.66
2023-05-10T01:46:00.621Z,69.91
2023-05-10T01:47:00.755Z,69.84
2023-05-10T01:48:00.647Z,69.68
2023-05-10T01:49:00.557Z,69.43
2023-05-10T01:50:00.581Z,70.16
2023-05-10T01:51:00.554Z,70.48
2023-05-10T01:52:00.524Z,71.46
2023-05-10T01:53:00.567Z,71.39
2023-05-10T01:54:00.566Z,71.46
2023-05-10T01:55:00.565Z,71.41
2023-05-10T01:56:00.588Z,71.07
2023-05-10T01:57:00.567Z,71.57
2023-05-10T01:58:00.593Z,72.17
2023-05-10T01:59:00.585Z,73.28
2023-05-10T02:00:00.611Z,73.46
2023-05-10T02:01:00.677Z,73.38
2023-05-10T02:02:00.561Z,72.94
2023-05-10T02:03:00.607Z,72.77
2023-05-10T02:04:00.656Z,72.51
2023-05-10T02:05:00.525Z,72.52
2023-05-10T02:06:00.548Z,72.36
2023-05-10T02:07:00.636Z,72.02
2023-05-10T02:08:00.638Z,72.25
2023-05-10T02:09:00.682Z,72.20
2023-05-10T02:10:00.716Z,72.01
2023-05-10T02:11:00.762Z,72.07
2023-05-10T02:12:00.818Z,71.88
2023-05-10T02:13:00.941Z,71.70
2023-05-10T02:14:00.953Z,71.58
2023-05-10T02:15:01.017Z,71.44
2023-05-10T02:16:01.028Z,71.62
2023-05-10T02:17:01.096Z,72.31
2023-05-10T02:18:01.275Z,72.57
2023-05-10T02:19:01.246Z,73.05
2023-05-10T02:20:01.281Z,73.08
2023-05-10T02:21:01.341Z,73.32
2023-05-10T02:22:01.416Z,73.96
2023-05-10T02:23:01.463Z,74.51
2023-05-10T02:24:01.518Z,74.68
2023-05-10T02:25:01.544Z,75.03
2023-05-10T02:26:01.582Z,75.37
2023-05-10T02:27:01.581Z,75.35
2023-05-10T02:28:01.604Z,75.55
2023-05-10T02:29:01.724Z,75.21
2023-05-10T02:30:01.785Z,75.47
2023-05-10T02:31:01.842Z,75.04
2023-05-10T02:32:01.995Z,75.09
2023-05-10T02:33:02.023Z,75.11
2023-05-10T02:34:02.051Z,75.11
2023-05-10T02:35:02.099Z,75.06
2023-05-10T02:36:02.178Z,75.18
2023-05-10T02:37:02.236Z,75.37
2023-05-10T02:38:02.291Z,75.39
2023-05-10T02:39:02.393Z,75.17
2023-05-10T02:40:02.422Z,75.14
2023-05-10T02:41:02.436Z,75.34
2023-05-10T02:42:02.493Z,75.57
2023-05-10T02:43:02.584Z,75.59
2023-05-10T02:44:02.592Z,75.52
2023-05-10T02:45:02.663Z,75.76
2023-05-10T02:46:02.771Z,75.94
2023-05-10T02:47:02.781Z,76.49
2023-05-10T02:48:02.852Z,76.55
2023-05-10T02:49:02.880Z,76.61
2023-05-10T02:50:02.912Z,76.39
2023-05-10T02:51:02.984Z,76.20
2023-05-10T02:52:03.068Z,75.97
2023-05-10T02:53:03.172Z,75.95
2023-05-10T02:54:03.228Z,75.81
2023-05-10T02:55:03.337Z,75.70
2023-05-10T02:56:03.348Z,75.54
2023-05-10T02:57:03.381Z,75.60
2023-05-10T02:58:03.435Z,75.26
2023-05-10T02:59:03.431Z,75.15
2023-05-10T03:00:03.476Z,75.09
2023-05-10T03:01:03.557Z,74.83
2023-05-10T03:02:03.580Z,74.67
2023-05-10T03:03:03.649Z,74.34
2023-05-10T03:04:03.602Z,74.44
2023-05-10T03:05:03.741Z,74.15
2023-05-10T03:06:03.640Z,73.99
2023-05-10T03:07:03.679Z,73.94
2023-05-10T03:08:03.695Z,73.76
2023-05-10T03:09:03.714Z,73.83
2023-05-10T03:10:03.754Z,73.77
2023-05-10T03:11:03.790Z,73.72
2023-05-10T03:12:03.830Z,73.83
2023-05-10T03:13:03.895Z,73.76
2023-05-10T03:14:03.942Z,73.51
2023-05-10T03:15:04.030Z,73.36
2023-05-10T03:16:04.065Z,73.18
2023-05-10T03:17:04.076Z,73.11
2023-05-10T03:18:04.167Z,72.99
2023-05-10T03:19:04.178Z,73.04
2023-05-10T03:20:04.194Z,72.99
2023-05-10T03:21:04.237Z,73.00
2023-05-10T03:22:04.276Z,73.14
2023-05-10T03:23:04.338Z,72.97
2023-05-10T03:24:04.415Z,72.97
2023-05-10T03:25:04.428Z,72.99
2023-05-10T03:26:04.471Z,73.02
2023-05-10T03:27:04.556Z,73.09
2023-05-10T03:28:04.535Z,73.54
2023-05-10T03:29:04.597Z,73.55
2023-05-10T03:30:04.560Z,73.61
2023-05-10T03:31:04.623Z,73.90
2023-05-10T03:32:04.574Z,74.09
2023-05-10T03:33:04.654Z,73.84
2023-05-10T03:34:04.735Z,74.21
2023-05-10T03:35:04.698Z,73.81
2023-05-10T03:36:04.747Z,74.06
2023-05-10T03:37:04.800Z,74.10
2023-05-10T03:38:04.834Z,74.05
2023-05-10T03:39:04.942Z,74.06
2023-05-10T03:40:05.006Z,74.29
2023-05-10T03:41:05.006Z,74.34
2023-05-10T03:42:05.040Z,74.37
2023-05-10T03:43:05.076Z,74.21
2023-05-10T03:44:05.121Z,74.14
2023-05-10T03:45:05.129Z,74.00
2023-05-10T03:46:05.185Z,73.97
2023-05-10T03:47:05.258Z,74.06
2023-05-10T03:48:05.310Z,73.90
2023-05-10T03:49:05.340Z,73.73
2023-05-10T03:50:05.290Z,73.30
2023-05-10T03:51:05.304Z,73.38
2023-05-10T03:52:05.318Z,73.85
2023-05-10T03:53:05.325Z,73.52
2023-05-10T03:54:05.337Z,73.55
2023-05-10T03:55:05.336Z,73.18
2023-05-10T03:56:05.352Z,73.37
2023-05-10T03:57:05.360Z,73.41
2023-05-10T03:58:05.364Z,73.17
2023-05-10T03:59:05.440Z,73.10
2023-05-10T04:00:05.462Z,73.08
2023-05-10T04:01:05.525Z,73.09
2023-05-10T04:02:05.606Z,73.04
2023-05-10T04:03:05.654Z,72.75
2023-05-10T04:04:05.702Z,72.43
2023-05-10T04:05:05.745Z,72.43
2023-05-10T04:06:05.817Z,72.49
2023-05-10T04:07:05.804Z,72.42
2023-05-10T04:08:05.865Z,72.45
2023-05-10T04:09:05.945Z,72.50
2023-05-10T04:10:05.954Z,72.51
2023-05-10T04:11:05.997Z,72.36
2023-05-10T04:12:06.499Z,72.38
2023-05-10T04:13:06.111Z,72.35
2023-05-10T04:14:06.128Z,72.31
2023-05-10T04:15:06.160Z,72.14
2023-05-10T04:16:06.192Z,72.09
2023-05-10T04:17:06.330Z,71.95
2023-05-10T04:18:08.718Z,71.84
2023-05-10T04:19:06.287Z,71.90
2023-05-10T04:20:06.186Z,71.81
2023-05-10T04:21:06.166Z,71.68
2023-05-10T04:22:06.144Z,71.60
2023-05-10T04:23:06.140Z,71.52
2023-05-10T04:24:06.118Z,71.53
2023-05-10T04:25:06.076Z,72.06
2023-05-10T04:26:06.047Z,71.62
2023-05-10T04:27:06.019Z,71.40
2023-05-10T04:28:05.999Z,71.41
2023-05-10T04:29:06.017Z,71.26
2023-05-10T04:30:05.956Z,71.17
2023-05-10T04:31:06.054Z,71.11
2023-05-10T04:32:05.903Z,70.97
2023-05-10T04:33:05.943Z,70.97
2023-05-10T04:34:05.892Z,70.94
2023-05-10T04:35:05.836Z,70.93
2023-05-10T04:36:05.833Z,70.96
2023-05-10T04:37:05.789Z,70.90
2023-05-10T04:38:05.755Z,70.92
2023-05-10T04:39:05.802Z,70.91
2023-05-10T04:40:05.721Z,70.95
2023-05-10T04:41:05.714Z,70.57
2023-05-10T04:42:05.696Z,70.80
2023-05-10T04:43:05.687Z,70.70
2023-05-10T04:44:05.699Z,70.76
2023-05-10T04:45:05.658Z,70.94
2023-05-10T04:46:05.734Z,70.90
2023-05-10T04:47:05.691Z,70.75
2023-05-10T04:48:05.715Z,70.70
2023-05-10T04:49:05.732Z,70.96
2023-05-10T04:50:05.804Z,71.08
2023-05-10T04:51:05.855Z,71.26
2023-05-10T04:52:05.852Z,71.34
2023-05-10T04:53:05.898Z,71.24
2023-05-10T04:54:06.936Z,71.25
2023-05-10T04:55:05.971Z,71.14
2023-05-10T04:56:06.001Z,71.15
2023-05-10T04:57:06.039Z,71.24
2023-05-10T04:58:06.081Z,71.15
2023-05-10T04:59:06.127Z,71.17
2023-05-10T05:00:06.181Z,71.15
2023-05-10T05:01:06.208Z,71.23
2023-05-10T05:02:06.320Z,71.03
2023-05-10T05:03:06.448Z,71.01
2023-05-10T05:04:06.367Z,70.96
2023-05-10T05:05:06.432Z,70.89
2023-05-10T05:06:06.436Z,70.92
2023-05-10T05:07:06.464Z,71.03
2023-05-10T05:08:06.504Z,70.94
2023-05-10T05:09:06.554Z,71.00
2023-05-10T05:10:06.554Z,71.14
2023-05-10T05:11:06.571Z,71.26
2023-05-10T05:12:06.634Z,71.34
2023-05-10T05:13:06.768Z,71.43
2023-05-10T05:14:06.731Z,71.42
2023-05-10T05:15:09.055Z,71.53
2023-05-10T05:16:06.769Z,71.45
2023-05-10T05:17:06.660Z,71.33
2023-05-10T05:18:06.691Z,71.46
2023-05-10T05:19:06.832Z,71.68
2023-05-10T05:20:06.623Z,71.68
2023-05-10T05:21:06.778Z,72.31
2023-05-10T05:22:06.552Z,73.17
2023-05-10T05:23:06.545Z,72.88
2023-05-10T05:24:06.528Z,72.40
2023-05-10T05:25:06.465Z,72.21
2023-05-10T05:26:06.782Z,72.21
2023-05-10T05:27:06.410Z,72.61
2023-05-10T05:28:06.383Z,72.14
2023-05-10T05:29:06.357Z,71.97
2023-05-10T05:30:06.367Z,72.32
2023-05-10T05:31:06.350Z,72.22
2023-05-10T05:32:06.380Z,71.73
2023-05-10T05:33:06.352Z,71.33
2023-05-10T05:34:06.242Z,71.03
2023-05-10T05:35:06.311Z,70.89
2023-05-10T05:36:06.184Z,70.95
2023-05-10T05:37:06.168Z,71.06
2023-05-10T05:38:06.178Z,70.97
2023-05-10T05:39:06.111Z,70.91
2023-05-10T05:40:06.299Z,71.04
2023-05-10T05:41:06.057Z,71.04
2023-05-10T05:42:06.054Z,70.93
2023-05-10T05:43:06.054Z,71.22
2023-05-10T05:44:06.062Z,70.87
2023-05-10T05:45:06.283Z,70.14
2023-05-10T05:46:06.186Z,69.98
2023-05-10T05:47:06.163Z,69.83
2023-05-10T05:48:06.266Z,70.00
2023-05-10T05:49:06.217Z,70.71
2023-05-10T05:50:06.297Z,71.17
2023-05-10T05:51:07.394Z,71.89
2023-05-10T05:52:07.289Z,72.38
2023-05-10T05:53:06.253Z,72.49
2023-05-10T05:54:06.557Z,73.25
2023-05-10T05:55:06.334Z,72.50
2023-05-10T05:56:06.269Z,72.40
2023-05-10T05:57:06.284Z,72.35
2023-05-10T05:58:06.789Z,72.18
2023-05-10T05:59:06.327Z,72.13
2023-05-10T06:00:06.789Z,72.14
2023-05-10T06:01:06.375Z,71.92
2023-05-10T06:02:09.634Z,72.17
2023-05-10T06:03:06.470Z,71.82
2023-05-10T06:04:09.610Z,71.48
2023-05-10T06:05:06.797Z,71.40
2023-05-10T06:06:06.328Z,71.34
2023-05-10T06:07:06.345Z,71.26
2023-05-10T06:08:06.268Z,71.22
2023-05-10T06:09:13.662Z,71.17
2023-05-10T06:10:06.188Z,71.02
2023-05-10T06:11:06.166Z,70.84
2023-05-10T06:12:06.325Z,70.82
2023-05-10T06:13:06.146Z,70.60
2023-05-10T06:14:06.069Z,70.60
2023-05-10T06:15:06.307Z,70.47
2023-05-10T06:16:06.013Z,70.49
2023-05-10T06:17:06.053Z,70.80
2023-05-10T06:18:06.130Z,71.09
2023-05-10T06:19:05.933Z,70.66
2023-05-10T06:20:06.306Z,70.90
2023-05-10T06:21:05.848Z,70.64
2023-05-10T06:22:05.807Z,70.56
2023-05-10T06:23:05.808Z,70.09
2023-05-10T06:24:05.771Z,70.15
2023-05-10T06:25:05.795Z,70.20
2023-05-10T06:26:05.687Z,69.82
2023-05-10T06:27:05.662Z,69.92
2023-05-10T06:28:05.629Z,70.03
2023-05-10T06:29:05.590Z,69.72
2023-05-10T06:30:12.791Z,69.62
2023-05-10T06:31:08.743Z,69.44
2023-05-10T06:32:05.488Z,69.28
2023-05-10T06:33:05.507Z,68.85
2023-05-10T06:34:05.423Z,68.78
2023-05-10T06:35:05.808Z,68.75
2023-05-10T06:36:05.358Z,68.73
2023-05-10T06:37:05.311Z,68.50
2023-05-10T06:38:05.272Z,68.30
2023-05-10T06:39:05.559Z,68.56
2023-05-10T06:40:06.204Z,68.32
2023-05-10T06:41:05.171Z,68.17
2023-05-10T06:42:05.157Z,67.90
2023-05-10T06:43:05.090Z,67.76
2023-05-10T06:44:05.297Z,67.88
2023-05-10T06:45:05.305Z,68.01
2023-05-10T06:46:04.993Z,68.15
2023-05-10T06:47:04.984Z,68.04
2023-05-10T06:48:04.988Z,67.83
2023-05-10T06:49:05.367Z,67.56
2023-05-10T06:50:05.368Z,67.50
2023-05-10T06:51:04.800Z,66.87
2023-05-10T06:52:04.801Z,66.89
2023-05-10T06:53:04.742Z,67.06
2023-05-10T06:54:04.713Z,67.38
2023-05-10T06:55:04.830Z,67.11
2023-05-10T06:56:07.851Z,67.23
2023-05-10T06:57:08.811Z,67.17
2023-05-10T06:58:04.574Z,66.60
2023-05-10T06:59:07.909Z,66.51
2023-05-10T07:00:04.826Z,66.51
2023-05-10T07:01:04.523Z,66.68
2023-05-10T07:02:04.530Z,66.70
2023-05-10T07:03:04.505Z,66.40
2023-05-10T07:04:04.817Z,66.73
2023-05-10T07:05:04.812Z,67.11
2023-05-10T07:06:04.343Z,66.79
2023-05-10T07:07:04.316Z,66.73
2023-05-10T07:08:04.255Z,66.82
2023-05-10T07:09:04.337Z,66.65
2023-05-10T07:10:04.328Z,66.62
2023-05-10T07:11:04.290Z,66.39
2023-05-10T07:12:04.190Z,66.29
2023-05-10T07:13:04.147Z,66.09
2023-05-10T07:14:04.064Z,65.83
2023-05-10T07:15:04.032Z,66.07
2023-05-10T07:16:04.019Z,66.31
2023-05-10T07:17:04.366Z,65.67
2023-05-10T07:18:04.026Z,65.82
2023-05-10T07:19:03.884Z,66.36
2023-05-10T07:20:03.855Z,65.97
2023-05-10T07:21:03.813Z,66.18
2023-05-10T07:22:03.760Z,65.18
2023-05-10T07:23:03.743Z,65.13
2023-05-10T07:24:03.696Z,65.13
2023-05-10T07:25:03.690Z,64.77
2023-05-10T07:26:03.645Z,64.59
2023-05-10T07:27:03.842Z,64.96
2023-05-10T07:28:03.570Z,64.73
2023-05-10T07:29:03.814Z,64.55
2023-05-10T07:30:03.598Z,64.48
2023-05-10T07:31:03.549Z,64.88
2023-05-10T07:32:03.833Z,64.00
2023-05-10T07:33:03.446Z,64.00
2023-05-10T07:34:03.377Z,63.70
2023-05-10T07:35:04.378Z,63.13
2023-05-10T07:36:03.290Z,63.15
2023-05-10T07:37:03.317Z,62.50
2023-05-10T07:38:03.253Z,65.13
2023-05-10T07:39:03.173Z,65.55
2023-05-10T07:40:03.312Z,67.18
2023-05-10T07:41:03.210Z,66.42
2023-05-10T07:42:03.089Z,66.02
2023-05-10T07:43:03.168Z,65.80
2023-05-10T07:44:06.439Z,66.48
2023-05-10T07:45:03.360Z,67.31
2023-05-10T07:46:07.395Z,67.12
2023-05-10T07:47:03.098Z,66.52
2023-05-10T07:48:03.059Z,66.18
2023-05-10T07:49:03.040Z,66.51
2023-05-10T07:50:03.369Z,66.57
2023-05-10T07:51:03.101Z,67.83
2023-05-10T07:52:03.280Z,66.87
2023-05-10T07:53:03.248Z,66.42
2023-05-10T07:54:06.251Z,66.36
2023-05-10T07:55:03.336Z,66.40
2023-05-10T07:56:02.974Z,66.31
2023-05-10T07:57:03.001Z,66.20
2023-05-10T07:58:02.936Z,65.91
2023-05-10T07:59:02.929Z,65.78
2023-05-10T08:00:03.324Z,65.75
2023-05-10T08:01:02.791Z,65.66
2023-05-10T08:02:02.781Z,66.00
2023-05-10T08:03:02.862Z,65.57
2023-05-10T08:04:02.934Z,65.69
2023-05-10T08:05:02.826Z,66.06
2023-05-10T08:06:02.610Z,65.82
2023-05-10T08:07:02.831Z,66.29
2023-05-10T08:08:02.514Z,66.07
2023-05-10T08:09:02.486Z,65.54
2023-05-10T08:10:02.830Z,65.46
2023-05-10T08:11:02.405Z,65.26
2023-05-10T08:12:02.366Z,64.60
2023-05-10T08:13:02.328Z,64.19
2023-05-10T08:14:02.321Z,63.35
2023-05-10T08:15:02.284Z,64.28
2023-05-10T08:16:02.241Z,63.45
2023-05-10T08:17:02.212Z,64.09
2023-05-10T08:18:02.154Z,63.52
2023-05-10T08:19:02.131Z,63.10
2023-05-10T08:20:02.407Z,63.11
2023-05-10T08:21:01.990Z,62.47
2023-05-10T08:22:01.968Z,62.61
2023-05-10T08:23:01.904Z,62.52
2023-05-10T08:24:01.855Z,63.18
2023-05-10T08:25:02.342Z,63.11
2023-05-10T08:26:03.437Z,62.62
2023-05-10T08:27:01.974Z,62.70
2023-05-10T08:28:02.003Z,62.33
2023-05-10T08:29:01.973Z,62.62
2023-05-10T08:30:02.332Z,63.46
2023-05-10T08:31:02.057Z,62.34
2023-05-10T08:32:01.951Z,62.15
2023-05-10T08:33:01.985Z,62.40
2023-05-10T08:34:01.893Z,61.50
2023-05-10T08:35:02.340Z,61.48
2023-05-10T08:36:01.856Z,61.45
2023-05-10T08:37:01.812Z,61.32
2023-05-10T08:38:01.807Z,60.77
2023-05-10T08:39:01.792Z,60.68
2023-05-10T08:40:02.878Z,60.69
2023-05-10T08:41:01.650Z,60.89
2023-05-10T08:42:01.833Z,61.72
2023-05-10T08:43:01.588Z,61.16
2023-05-10T08:44:01.563Z,60.73
2023-05-10T08:45:05.425Z,63.91
2023-05-10T08:46:01.505Z,65.62
2023-05-10T08:47:01.621Z,64.99
2023-05-10T08:48:01.484Z,65.22
2023-05-10T08:49:01.374Z,64.88
2023-05-10T08:50:01.875Z,64.92
2023-05-10T08:51:01.350Z,65.01
2023-05-10T08:52:01.301Z,65.21
2023-05-10T08:53:01.289Z,65.95
2023-05-10T08:54:01.258Z,65.70
2023-05-10T08:55:01.339Z,66.29
2023-05-10T08:56:01.254Z,65.27
2023-05-10T08:57:01.227Z,65.02
2023-05-10T08:58:01.240Z,65.44
2023-05-10T08:59:01.347Z,65.63
2023-05-10T09:00:01.857Z,65.63
2023-05-10T09:01:01.419Z,66.43
2023-05-10T09:02:01.348Z,66.56
2023-05-10T09:03:01.461Z,65.90
2023-05-10T09:04:01.462Z,65.74
2023-05-10T09:05:01.610Z,65.72
2023-05-10T09:06:01.446Z,65.45
2023-05-10T09:07:04.677Z,65.54
2023-05-10T09:08:01.482Z,64.76
2023-05-10T09:09:01.441Z,64.85
2023-05-10T09:10:01.448Z,66.09
2023-05-10T09:11:01.413Z,65.50
2023-05-10T09:12:01.407Z,65.55
2023-05-10T09:13:01.404Z,65.78
2023-05-10T09:14:01.389Z,67.58
2023-05-10T09:15:01.885Z,68.08
2023-05-10T09:16:09.855Z,68.21
2023-05-10T09:17:01.458Z,68.14
2023-05-10T09:18:01.400Z,67.99
2023-05-10T09:19:01.425Z,67.94
2023-05-10T09:20:02.688Z,68.11
2023-05-10T09:21:01.887Z,67.55
2023-05-10T09:22:01.654Z,67.68
2023-05-10T09:23:01.648Z,68.08
2023-05-10T09:24:01.716Z,69.06
2023-05-10T09:25:01.763Z,69.26
2023-05-10T09:26:01.848Z,69.46
2023-05-10T09:27:01.828Z,68.72
2023-05-10T09:28:01.900Z,68.53
2023-05-10T09:29:01.955Z,69.29
2023-05-10T09:30:02.353Z,68.71
2023-05-10T09:31:02.070Z,68.88
2023-05-10T09:32:02.073Z,68.41
2023-05-10T09:33:02.129Z,69.09
2023-05-10T09:34:02.135Z,68.29
2023-05-10T09:35:02.391Z,68.41
2023-05-10T09:36:02.356Z,68.75
2023-05-10T09:37:02.281Z,68.64
2023-05-10T09:38:02.325Z,68.52
2023-05-10T09:39:02.858Z,68.31
2023-05-10T09:40:02.442Z,68.13
2023-05-10T09:41:02.428Z,68.44
2023-05-10T09:42:02.451Z,68.86
2023-05-10T09:43:02.485Z,68.23
2023-05-10T09:44:02.864Z,67.51
2023-05-10T09:45:02.549Z,67.49
2023-05-10T09:46:02.645Z,67.66
2023-05-10T09:47:02.629Z,68.73
2023-05-10T09:48:02.718Z,68.63
2023-05-10T09:49:02.726Z,68.68
2023-05-10T09:50:02.860Z,68.79
2023-05-10T09:51:02.774Z,67.85
2023-05-10T09:52:02.782Z,67.39
2023-05-10T09:53:02.825Z,66.85
2023-05-10T09:54:03.376Z,67.16
2023-05-10T09:55:02.957Z,67.23
2023-05-10T09:56:02.976Z,68.15
2023-05-10T09:57:03.357Z,66.90
2023-05-10T09:58:04.009Z,65.72
2023-05-10T09:59:06.204Z,65.52
2023-05-10T10:00:03.006Z,66.06
2023-05-10T10:01:03.408Z,67.51
2023-05-10T10:02:03.080Z,66.88
2023-05-10T10:03:03.060Z,66.71
2023-05-10T10:04:03.004Z,66.35
2023-05-10T10:05:03.031Z,66.91
2023-05-10T10:06:03.367Z,66.99
2023-05-10T10:07:03.053Z,67.64
2023-05-10T10:08:03.393Z,68.75
2023-05-10T10:09:03.047Z,67.23
2023-05-10T10:10:03.361Z,67.35
2023-05-10T10:11:03.360Z,67.15
2023-05-10T10:12:03.084Z,66.28
2023-05-10T10:13:03.118Z,68.24
2023-05-10T10:14:03.132Z,68.93
2023-05-10T10:15:03.162Z,68.84
2023-05-10T10:16:03.408Z,68.34
2023-05-10T10:18:02.328Z,69.10
2023-05-10T10:19:03.330Z,70.31
2023-05-10T10:20:03.311Z,70.70
2023-05-10T10:21:03.378Z,71.55
2023-05-10T10:22:03.316Z,71.94
2023-05-10T10:23:03.358Z,71.16
2023-05-10T10:24:03.350Z,70.25
2023-05-10T10:25:03.357Z,69.60
2023-05-10T10:26:03.868Z,70.03
2023-05-10T10:27:03.385Z,70.01
2023-05-10T10:28:03.413Z,70.63
2023-05-10T10:29:03.413Z,70.41
2023-05-10T10:30:03.391Z,68.90
2023-05-10T10:31:03.899Z,69.46
2023-05-10T10:32:03.397Z,70.84
2023-05-10T10:33:10.224Z,70.44
2023-05-10T10:34:03.414Z,69.32
2023-05-10T10:35:03.414Z,69.08
2023-05-10T10:36:03.865Z,69.35
2023-05-10T10:37:03.411Z,69.40
2023-05-10T10:38:03.410Z,68.95
2023-05-10T10:39:03.448Z,69.69
2023-05-10T10:40:03.423Z,69.98
2023-05-10T10:41:03.884Z,69.77
2023-05-10T10:42:03.430Z,69.99
2023-05-10T10:43:03.457Z,70.20
2023-05-10T10:44:03.477Z,69.72
2023-05-10T10:45:03.490Z,71.20
2023-05-10T10:46:03.538Z,71.53
2023-05-10T10:47:03.613Z,71.59
2023-05-10T10:48:03.613Z,72.07
2023-05-10T10:49:03.591Z,71.66
2023-05-10T10:50:03.657Z,71.73
2023-05-10T10:51:05.321Z,72.87
2023-05-10T10:52:03.653Z,72.04
2023-05-10T10:53:03.665Z,71.74
2023-05-10T10:54:03.734Z,72.71
2023-05-10T10:55:03.786Z,71.81
2023-05-10T10:56:03.691Z,71.98
2023-05-10T10:57:03.700Z,71.54
2023-05-10T10:58:03.882Z,71.05
2023-05-10T10:59:03.736Z,70.39
2023-05-10T11:00:03.805Z,70.89
2023-05-10T11:01:03.792Z,70.93
2023-05-10T11:02:04.673Z,70.68
2023-05-10T11:03:04.037Z,71.96
2023-05-10T11:04:03.950Z,71.62
2023-05-10T11:05:04.377Z,72.36
2023-05-10T11:06:03.898Z,73.13
2023-05-10T11:07:03.910Z,73.34
2023-05-10T11:08:03.913Z,72.44
2023-05-10T11:09:03.935Z,72.60
2023-05-10T11:10:04.377Z,72.58
2023-05-10T11:11:03.976Z,71.65
2023-05-10T11:12:03.960Z,71.90
2023-05-10T11:13:03.955Z,72.37
2023-05-10T11:14:03.957Z,71.92
2023-05-10T11:15:03.957Z,70.39
2023-05-10T11:16:04.398Z,69.51
2023-05-10T11:17:04.024Z,69.94
2023-05-10T11:18:04.029Z,69.27
2023-05-10T11:19:07.310Z,68.35
2023-05-10T11:20:03.976Z,67.75
2023-05-10T11:21:04.006Z,68.46
2023-05-10T11:22:04.772Z,69.19
2023-05-10T11:23:04.047Z,67.74
2023-05-10T11:24:04.072Z,68.00
2023-05-10T11:25:04.113Z,69.46
2023-05-10T11:26:05.112Z,68.49
2023-05-10T11:27:04.153Z,69.23
2023-05-10T11:28:04.365Z,67.67
2023-05-10T11:29:04.153Z,67.14
2023-05-10T11:30:05.040Z,68.59
2023-05-10T11:31:04.245Z,68.17
2023-05-10T11:32:04.159Z,67.41
2023-05-10T11:33:04.203Z,68.62
2023-05-10T11:34:04.192Z,68.29
2023-05-10T11:35:04.197Z,67.53
2023-05-10T11:36:04.215Z,68.91
2023-05-10T11:37:04.244Z,69.17
2023-05-10T11:38:04.302Z,69.39
2023-05-10T11:39:04.331Z,69.30
2023-05-10T11:40:04.405Z,68.83
2023-05-10T11:41:04.549Z,68.51
2023-05-10T11:42:04.534Z,69.23
2023-05-10T11:43:04.596Z,68.92
2023-05-10T11:44:04.630Z,69.43
2023-05-10T11:45:04.700Z,69.00
2023-05-10T11:46:04.831Z,68.23
2023-05-10T11:47:04.788Z,68.42
2023-05-10T11:48:04.882Z,68.93
2023-05-10T11:49:04.953Z,68.68
2023-05-10T11:50:04.922Z,67.98
2023-05-10T11:51:04.997Z,67.25
2023-05-10T11:52:05.002Z,66.66
2023-05-10T11:53:05.049Z,66.95
2023-05-10T11:54:05.100Z,66.79
2023-05-10T11:55:05.202Z,68.14
2023-05-10T11:56:06.404Z,67.75
2023-05-10T11:57:05.311Z,69.57
2023-05-10T11:58:05.398Z,69.36
2023-05-10T11:59:05.910Z,70.40
2023-05-10T12:00:05.588Z,69.90
2023-05-10T12:01:05.910Z,69.68
2023-05-10T12:02:05.724Z,69.86
2023-05-10T12:03:05.853Z,70.73
2023-05-10T12:04:06.209Z,70.81
2023-05-10T12:05:06.099Z,69.82
2023-05-10T12:06:06.048Z,70.12
2023-05-10T12:07:06.115Z,70.79
2023-05-10T12:08:06.205Z,70.23
2023-05-10T12:09:06.289Z,69.48
2023-05-10T12:10:06.408Z,69.52
2023-05-10T12:11:06.545Z,70.18
2023-05-10T12:12:06.575Z,71.73
2023-05-10T12:13:06.679Z,72.65
2023-05-10T12:14:06.770Z,71.30
2023-05-10T12:15:06.932Z,71.56
2023-05-10T12:16:07.465Z,72.37
2023-05-10T12:17:06.976Z,72.27
2023-05-10T12:18:07.077Z,72.26
2023-05-10T12:19:07.154Z,73.09
2023-05-10T12:20:07.234Z,72.88
2023-05-10T12:21:07.341Z,73.33
2023-05-10T12:22:07.916Z,72.01
2023-05-10T12:23:07.859Z,72.17
2023-05-10T12:24:07.589Z,71.22
2023-05-10T12:25:07.651Z,70.97
2023-05-10T12:26:07.949Z,72.20
2023-05-10T12:27:07.793Z,72.47
2023-05-10T12:28:07.831Z,71.88
2023-05-10T12:29:07.855Z,71.25
2023-05-10T12:30:07.884Z,71.20
2023-05-10T12:31:08.046Z,72.20
2023-05-10T12:32:08.201Z,72.16
2023-05-10T12:33:08.137Z,70.88
2023-05-10T12:34:08.138Z,71.10
2023-05-10T12:35:08.187Z,71.05
2023-05-10T12:36:08.266Z,70.87
2023-05-10T12:37:08.307Z,70.79
2023-05-10T12:38:08.353Z,71.60
2023-05-10T12:39:08.906Z,72.05
2023-05-10T12:40:08.523Z,71.09
2023-05-10T12:41:08.624Z,71.71
2023-05-10T12:42:08.640Z,72.54
2023-05-10T12:43:08.897Z,72.21
2023-05-10T12:44:08.754Z,72.17
2023-05-10T12:45:08.785Z,72.13
2023-05-10T12:46:08.908Z,72.51
2023-05-10T12:47:08.890Z,72.82
2023-05-10T12:48:08.959Z,72.75
2023-05-10T12:49:09.897Z,72.95
2023-05-10T12:50:09.047Z,73.17
2023-05-10T12:51:09.090Z,73.04
2023-05-10T12:52:09.095Z,73.15
2023-05-10T12:53:09.158Z,73.28
2023-05-10T12:54:09.179Z,73.38